createdAt,value
2022-08-19T00:00:04.137Z,1002.5
2022-08-19T00:01:04.018Z,1002.6
2022-08-19T00:02:04.009Z,1002.6
2022-08-19T00:03:04.024Z,1002.6
2022-08-19T00:04:04.047Z,1002.5
2022-08-19T00:05:04.047Z,1002.5
2022-08-19T00:06:04.028Z,1002.5
2022-08-19T00:07:03.997Z,1002.6
2022-08-19T00:08:04.084Z,1002.6
2022-08-19T00:09:04.006Z,1002.6
2022-08-19T00:10:04.073Z,1002.6
2022-08-19T00:11:04.007Z,1002.6
2022-08-19T00:12:04.019Z,1002.6
2022-08-19T00:13:04.013Z,1002.6
2022-08-19T00:14:04.026Z,1002.6
2022-08-19T00:15:04.035Z,1002.5
2022-08-19T00:16:04.005Z,1002.5
2022-08-19T00:17:04.027Z,1002.5
2022-08-19T00:18:04.027Z,1002.5
2022-08-19T00:19:04.017Z,1002.5
2022-08-19T00:20:04.025Z,1002.4
2022-08-19T00:21:04.007Z,1002.4
2022-08-19T00:22:04.017Z,1002.4
2022-08-19T00:23:04.015Z,1002.4
2022-08-19T00:24:03.997Z,1002.3
2022-08-19T00:25:04.037Z,1002.3
2022-08-19T00:26:03.997Z,1002.3
2022-08-19T00:27:25.328Z,1002.2
2022-08-19T00:28:04.019Z,1002.3
2022-08-19T00:29:04.029Z,1002.2
2022-08-19T00:30:04.051Z,1002.2
2022-08-19T00:31:04.011Z,1002.2
2022-08-19T00:32:04.007Z,1002.2
2022-08-19T00:33:04.009Z,1002.2
2022-08-19T00:34:04.082Z,1002.2
2022-08-19T00:35:04.039Z,1002.2
2022-08-19T00:36:04.038Z,1002.1
2022-08-19T00:37:04.026Z,1002.1
2022-08-19T00:38:03.997Z,1002.1
2022-08-19T00:39:04.019Z,1002.1
2022-08-19T00:40:04.068Z,1002.1
2022-08-19T00:41:04.010Z,1002.1
2022-08-19T00:42:04.037Z,1002.1
2022-08-19T00:43:04.031Z,1002.1
2022-08-19T00:44:04.046Z,1002.1
2022-08-19T00:45:04.064Z,1002.1
2022-08-19T00:46:04.121Z,1002.0
2022-08-19T00:47:04.101Z,1002.0
2022-08-19T00:48:04.080Z,1002.0
2022-08-19T00:49:04.134Z,1002.0
2022-08-19T00:50:04.144Z,1001.9
2022-08-19T00:51:04.045Z,1001.9
2022-08-19T00:52:04.033Z,1001.9
2022-08-19T00:53:04.037Z,1001.9
2022-08-19T00:54:04.110Z,1001.9
2022-08-19T00:55:04.063Z,1001.9
2022-08-19T00:56:04.086Z,1001.9
2022-08-19T00:57:04.027Z,1001.9
2022-08-19T00:58:04.017Z,1002.0
2022-08-19T00:59:04.023Z,1002.0
2022-08-19T01:00:04.003Z,1002.0
2022-08-19T01:01:04.037Z,1002.0
2022-08-19T01:02:04.014Z,1002.0
2022-08-19T01:03:04.112Z,1002.0
2022-08-19T01:04:04.015Z,1002.0
2022-08-19T01:05:04.019Z,1002.0
2022-08-19T01:06:04.039Z,1002.0
2022-08-19T01:07:04.012Z,1002.0
2022-08-19T01:08:04.022Z,1001.9
2022-08-19T01:09:04.041Z,1002.0
2022-08-19T01:10:04.004Z,1002.0
2022-08-19T01:11:04.177Z,1002.0
2022-08-19T01:12:04.013Z,1002.0
2022-08-19T01:13:04.023Z,1002.0
2022-08-19T01:14:04.034Z,1002.0
2022-08-19T01:15:04.153Z,1002.1
2022-08-19T01:16:04.046Z,1002.1
2022-08-19T01:17:04.019Z,1002.1
2022-08-19T01:18:04.022Z,1002.0
2022-08-19T01:19:04.057Z,1002.0
2022-08-19T01:20:04.021Z,1002.0
2022-08-19T01:21:04.024Z,1002.1
2022-08-19T01:22:04.097Z,1002.0
2022-08-19T01:23:04.024Z,1002.0
2022-08-19T01:24:04.033Z,1002.0
2022-08-19T01:25:06.975Z,1002.1
2022-08-19T01:26:04.016Z,1002.0
2022-08-19T01:27:04.049Z,1002.0
2022-08-19T01:28:10.859Z,1002.0
2022-08-19T01:29:05.160Z,1002.0
2022-08-19T01:30:04.037Z,1002.0
2022-08-19T01:31:07.094Z,1002.0
2022-08-19T01:32:04.013Z,1002.0
2022-08-19T01:33:04.059Z,1002.0
2022-08-19T01:34:04.061Z,1002.0
2022-08-19T01:35:04.246Z,1002.1
2022-08-19T01:36:04.028Z,1002.1
2022-08-19T01:37:04.046Z,1002.1
2022-08-19T01:38:04.025Z,1002.1
2022-08-19T01:39:04.047Z,1002.1
2022-08-19T01:40:08.865Z,1002.1
2022-08-19T01:41:04.022Z,1002.1
2022-08-19T01:42:04.019Z,1002.1
2022-08-19T01:43:04.030Z,1002.1
2022-08-19T01:44:18.045Z,1002.1
2022-08-19T01:45:04.039Z,1002.1
2022-08-19T01:46:04.040Z,1002.1
2022-08-19T01:47:04.034Z,1002.1
2022-08-19T01:48:04.017Z,1002.0
2022-08-19T01:49:04.030Z,1002.0
2022-08-19T01:50:04.033Z,1002.0
2022-08-19T01:51:04.034Z,1002.0
2022-08-19T01:52:04.076Z,1002.0
2022-08-19T01:53:07.634Z,1002.1
2022-08-19T01:54:04.027Z,1002.0
2022-08-19T01:55:04.031Z,1002.1
2022-08-19T01:56:04.016Z,1002.1
2022-08-19T01:57:04.029Z,1002.1
2022-08-19T01:58:04.028Z,1002.2
2022-08-19T01:59:04.044Z,1002.1
2022-08-19T02:00:04.033Z,1002.1
2022-08-19T02:01:04.149Z,1002.1
2022-08-19T02:02:04.039Z,1002.1
2022-08-19T02:03:04.036Z,1002.1
2022-08-19T02:04:04.027Z,1002.1
2022-08-19T02:05:04.036Z,1002.1
2022-08-19T02:06:04.133Z,1002.1
2022-08-19T02:07:04.041Z,1002.1
2022-08-19T02:08:04.021Z,1002.1
2022-08-19T02:09:04.060Z,1002.2
2022-08-19T02:10:04.031Z,1002.2
2022-08-19T02:11:04.039Z,1002.1
2022-08-19T02:12:04.040Z,1002.2
2022-08-19T02:13:04.042Z,1002.2
2022-08-19T02:14:04.029Z,1002.2
2022-08-19T02:15:04.033Z,1002.2
2022-08-19T02:16:04.337Z,1002.2
2022-08-19T02:17:04.053Z,1002.2
2022-08-19T02:18:04.046Z,1002.2
2022-08-19T02:19:04.033Z,1002.2
2022-08-19T02:20:04.033Z,1002.2
2022-08-19T02:21:04.042Z,1002.1
2022-08-19T02:22:04.078Z,1002.1
2022-08-19T02:23:04.046Z,1002.1
2022-08-19T02:24:04.078Z,1002.1
2022-08-19T02:25:04.047Z,1002.0
2022-08-19T02:26:04.058Z,1002.0
2022-08-19T02:27:04.047Z,1002.0
2022-08-19T02:28:04.034Z,1002.1
2022-08-19T02:29:04.090Z,1002.1
2022-08-19T02:30:04.031Z,1002.1
2022-08-19T02:31:04.086Z,1002.1
2022-08-19T02:32:04.045Z,1002.1
2022-08-19T02:33:04.111Z,1002.1
2022-08-19T02:34:04.028Z,1002.1
2022-08-19T02:35:04.038Z,1002.1
2022-08-19T02:36:04.039Z,1002.1
2022-08-19T02:37:04.107Z,1002.1
2022-08-19T02:38:04.044Z,1002.1
2022-08-19T02:39:04.051Z,1002.1
2022-08-19T02:40:04.132Z,1002.2
2022-08-19T02:41:04.070Z,1002.2
2022-08-19T02:42:04.048Z,1002.2
2022-08-19T02:43:04.050Z,1002.2
2022-08-19T02:44:29.303Z,1002.3
2022-08-19T02:45:04.052Z,1002.3
2022-08-19T02:46:04.044Z,1002.3
2022-08-19T02:47:04.045Z,1002.3
2022-08-19T02:48:10.103Z,1002.3
2022-08-19T02:49:04.095Z,1002.3
2022-08-19T02:50:04.072Z,1002.3
2022-08-19T02:51:04.043Z,1002.3
2022-08-19T02:52:08.456Z,1002.2
2022-08-19T02:53:04.076Z,1002.2
2022-08-19T02:54:04.043Z,1002.2
2022-08-19T02:55:04.052Z,1002.2
2022-08-19T02:56:04.057Z,1002.2
2022-08-19T02:57:04.048Z,1002.2
2022-08-19T02:58:04.067Z,1002.3
2022-08-19T02:59:04.063Z,1002.3
2022-08-19T03:00:04.167Z,1002.3
2022-08-19T03:01:04.228Z,1002.3
2022-08-19T03:02:04.055Z,1002.3
2022-08-19T03:03:04.208Z,1002.2
2022-08-19T03:04:04.057Z,1002.3
2022-08-19T03:05:04.072Z,1002.3
2022-08-19T03:06:04.043Z,1002.3
2022-08-19T03:07:10.658Z,1002.3
2022-08-19T03:08:04.073Z,1002.3
2022-08-19T03:09:04.060Z,1002.3
2022-08-19T03:10:04.116Z,1002.3
2022-08-19T03:11:04.107Z,1002.3
2022-08-19T03:12:04.177Z,1002.3
2022-08-19T03:13:04.755Z,1002.3
2022-08-19T03:14:04.086Z,1002.3
2022-08-19T03:15:04.057Z,1002.3
2022-08-19T03:16:04.114Z,1002.3
2022-08-19T03:17:04.172Z,1002.3
2022-08-19T03:18:04.177Z,1002.3
2022-08-19T03:19:04.197Z,1002.2
2022-08-19T03:20:04.247Z,1002.2
2022-08-19T03:21:04.215Z,1002.2
2022-08-19T03:22:04.483Z,1002.3
2022-08-19T03:23:04.178Z,1002.2
2022-08-19T03:24:04.148Z,1002.2
2022-08-19T03:25:04.152Z,1002.2
2022-08-19T03:26:15.881Z,1002.2
2022-08-19T03:27:04.065Z,1002.2
2022-08-19T03:28:04.066Z,1002.1
2022-08-19T03:29:05.589Z,1002.2
2022-08-19T03:30:04.081Z,1002.1
2022-08-19T03:31:04.050Z,1002.1
2022-08-19T03:32:04.654Z,1002.2
2022-08-19T03:33:04.057Z,1002.2
2022-08-19T03:34:04.055Z,1002.2
2022-08-19T03:35:04.117Z,1002.2
2022-08-19T03:36:04.071Z,1002.2
2022-08-19T03:37:04.095Z,1002.3
2022-08-19T03:38:04.068Z,1002.3
2022-08-19T03:39:04.055Z,1002.3
2022-08-19T03:40:04.090Z,1002.3
2022-08-19T03:41:04.059Z,1002.3
2022-08-19T03:42:31.765Z,1002.3
2022-08-19T03:43:04.296Z,1002.2
2022-08-19T03:44:04.058Z,1002.3
2022-08-19T03:45:04.067Z,1002.3
2022-08-19T03:46:04.065Z,1002.3
2022-08-19T03:47:04.112Z,1002.4
2022-08-19T03:49:55.286Z,1002.4
2022-08-19T03:50:03.962Z,1002.4
2022-08-19T03:51:03.966Z,1002.3
2022-08-19T03:52:03.976Z,1002.3
2022-08-19T03:53:03.977Z,1002.3
2022-08-19T03:54:03.976Z,1002.3
2022-08-19T03:55:03.968Z,1002.3
2022-08-19T03:56:03.972Z,1002.3
2022-08-19T03:57:03.956Z,1002.3
2022-08-19T03:58:03.980Z,1002.3
2022-08-19T03:59:03.972Z,1002.3
2022-08-19T04:00:13.681Z,1002.3
2022-08-19T04:01:04.020Z,1002.3
2022-08-19T04:02:03.980Z,1002.3
2022-08-19T04:03:03.977Z,1002.3
2022-08-19T04:04:04.738Z,1002.3
2022-08-19T04:05:03.971Z,1002.3
2022-08-19T04:06:03.991Z,1002.3
2022-08-19T04:07:03.970Z,1002.3
2022-08-19T04:08:03.980Z,1002.3
2022-08-19T04:09:04.022Z,1002.3
2022-08-19T04:10:03.979Z,1002.3
2022-08-19T04:11:03.970Z,1002.3
2022-08-19T04:12:03.970Z,1002.3
2022-08-19T04:13:03.965Z,1002.3
2022-08-19T04:14:04.378Z,1002.3
2022-08-19T04:15:03.978Z,1002.3
2022-08-19T04:16:03.984Z,1002.3
2022-08-19T04:17:03.973Z,1002.3
2022-08-19T04:18:03.981Z,1002.4
2022-08-19T04:19:04.003Z,1002.4
2022-08-19T04:20:06.895Z,1002.4
2022-08-19T04:21:05.045Z,1002.4
2022-08-19T04:22:03.976Z,1002.3
2022-08-19T04:23:03.973Z,1002.4
2022-08-19T04:24:04.144Z,1002.4
2022-08-19T04:25:04.001Z,1002.4
2022-08-19T04:26:03.994Z,1002.4
2022-08-19T04:27:03.978Z,1002.4
2022-08-19T04:28:03.975Z,1002.4
2022-08-19T04:29:04.018Z,1002.4
2022-08-19T04:30:03.979Z,1002.4
2022-08-19T04:31:03.994Z,1002.4
2022-08-19T04:32:09.328Z,1002.4
2022-08-19T04:33:03.979Z,1002.4
2022-08-19T04:34:04.011Z,1002.4
2022-08-19T04:35:16.713Z,1002.4
2022-08-19T04:36:03.999Z,1002.4
2022-08-19T04:37:03.997Z,1002.4
2022-08-19T04:38:03.983Z,1002.4
2022-08-19T04:39:04.011Z,1002.4
2022-08-19T04:40:04.137Z,1002.4
2022-08-19T04:41:04.179Z,1002.4
2022-08-19T04:42:03.979Z,1002.4
2022-08-19T04:43:03.978Z,1002.4
2022-08-19T04:44:04.642Z,1002.4
2022-08-19T04:45:03.980Z,1002.4
2022-08-19T04:46:03.997Z,1002.4
2022-08-19T04:47:03.989Z,1002.5
2022-08-19T04:48:26.417Z,1002.4
2022-08-19T04:49:13.226Z,1002.4
2022-08-19T04:50:04.013Z,1002.4
2022-08-19T04:52:06.006Z,1002.4
2022-08-19T04:52:09.995Z,1002.4
2022-08-19T04:53:04.036Z,1002.4
2022-08-19T04:54:03.986Z,1002.3
2022-08-19T04:55:03.990Z,1002.3
2022-08-19T04:56:04.235Z,1002.3
2022-08-19T04:57:03.983Z,1002.3
2022-08-19T04:58:03.984Z,1002.4
2022-08-19T04:59:03.987Z,1002.4
2022-08-19T05:00:03.998Z,1002.4
2022-08-19T05:01:04.094Z,1002.4
2022-08-19T05:02:04.004Z,1002.4
2022-08-19T05:03:03.985Z,1002.5
2022-08-19T05:04:03.987Z,1002.5
2022-08-19T05:05:03.992Z,1002.5
2022-08-19T05:06:03.997Z,1002.5
2022-08-19T05:07:03.977Z,1002.6
2022-08-19T05:08:04.008Z,1002.6
2022-08-19T05:09:03.983Z,1002.6
2022-08-19T05:10:04.012Z,1002.6
2022-08-19T05:11:04.000Z,1002.6
2022-08-19T05:12:03.994Z,1002.6
2022-08-19T05:13:03.986Z,1002.6
2022-08-19T05:14:03.992Z,1002.6
2022-08-19T05:15:03.991Z,1002.6
2022-08-19T05:16:04.165Z,1002.6
2022-08-19T05:17:26.215Z,1002.5
2022-08-19T05:18:04.020Z,1002.6
2022-08-19T05:19:04.369Z,1002.5
2022-08-19T05:20:03.998Z,1002.5
2022-08-19T05:21:03.998Z,1002.5
2022-08-19T05:22:03.995Z,1002.5
2022-08-19T05:23:03.988Z,1002.5
2022-08-19T05:24:03.992Z,1002.5
2022-08-19T05:25:12.590Z,1002.5
2022-08-19T05:26:03.997Z,1002.6
2022-08-19T05:27:03.991Z,1002.7
2022-08-19T05:28:04.067Z,1002.6
2022-08-19T05:29:03.984Z,1002.7
2022-08-19T05:30:04.044Z,1002.7
2022-08-19T05:31:04.014Z,1002.7
2022-08-19T05:32:03.995Z,1002.7
2022-08-19T05:33:10.733Z,1002.7
2022-08-19T05:34:04.414Z,1002.7
2022-08-19T05:35:04.422Z,1002.7
2022-08-19T05:36:04.413Z,1002.7
2022-08-19T05:37:04.418Z,1002.7
2022-08-19T05:38:04.406Z,1002.7
2022-08-19T05:39:04.413Z,1002.7
2022-08-19T05:40:04.451Z,1002.7
2022-08-19T05:41:04.422Z,1002.7
2022-08-19T05:42:04.413Z,1002.7
2022-08-19T05:43:04.424Z,1002.7
2022-08-19T05:44:04.426Z,1002.8
2022-08-19T05:45:04.412Z,1002.8
2022-08-19T05:46:04.418Z,1002.8
2022-08-19T05:47:04.422Z,1002.8
2022-08-19T05:48:04.420Z,1002.8
2022-08-19T05:49:04.446Z,1002.8
2022-08-19T05:50:04.934Z,1002.9
2022-08-19T05:51:04.441Z,1002.9
2022-08-19T05:52:04.450Z,1002.8
2022-08-19T05:53:04.441Z,1002.8
2022-08-19T05:54:04.413Z,1002.8
2022-08-19T05:55:04.450Z,1002.8
2022-08-19T05:56:04.425Z,1002.9
2022-08-19T05:57:04.438Z,1003.0
2022-08-19T05:58:04.422Z,1003.0
2022-08-19T05:59:04.430Z,1003.0
2022-08-19T06:00:04.416Z,1003.0
2022-08-19T06:01:04.416Z,1003.1
2022-08-19T06:02:04.418Z,1003.1
2022-08-19T06:03:12.940Z,1003.2
2022-08-19T06:04:04.430Z,1003.2
2022-08-19T06:05:04.463Z,1003.2
2022-08-19T06:06:04.426Z,1003.2
2022-08-19T06:07:12.236Z,1003.2
2022-08-19T06:08:04.427Z,1003.2
2022-08-19T06:09:04.437Z,1003.3
2022-08-19T06:10:04.411Z,1003.3
2022-08-19T06:11:04.422Z,1003.4
2022-08-19T06:12:04.423Z,1003.3
2022-08-19T06:13:04.427Z,1003.3
2022-08-19T06:14:04.591Z,1003.3
2022-08-19T06:15:04.498Z,1003.4
2022-08-19T06:16:04.422Z,1003.4
2022-08-19T06:17:07.137Z,1003.4
2022-08-19T06:18:04.443Z,1003.4
2022-08-19T06:20:56.261Z,1003.4
2022-08-19T06:21:04.339Z,1003.4
2022-08-19T06:22:04.320Z,1003.4
2022-08-19T06:23:04.321Z,1003.5
2022-08-19T06:24:04.362Z,1003.5
2022-08-19T06:25:04.320Z,1003.5
2022-08-19T06:26:04.316Z,1003.5
2022-08-19T06:27:04.326Z,1003.6
2022-08-19T06:28:15.680Z,1003.6
2022-08-19T06:29:04.330Z,1003.5
2022-08-19T06:30:04.331Z,1003.5
2022-08-19T06:31:04.405Z,1003.5
2022-08-19T06:32:04.324Z,1003.5
2022-08-19T06:33:04.330Z,1003.5
2022-08-19T06:34:04.330Z,1003.4
2022-08-19T06:35:04.331Z,1003.5
2022-08-19T06:36:04.323Z,1003.4
2022-08-19T06:37:04.331Z,1003.4
2022-08-19T06:38:04.318Z,1003.4
2022-08-19T06:39:04.333Z,1003.4
2022-08-19T06:40:04.402Z,1003.5
2022-08-19T06:41:07.624Z,1003.5
2022-08-19T06:42:04.347Z,1003.5
2022-08-19T06:43:05.659Z,1003.6
2022-08-19T06:44:04.395Z,1003.6
2022-08-19T06:45:04.332Z,1003.6
2022-08-19T06:46:04.507Z,1003.6
2022-08-19T06:47:09.581Z,1003.6
2022-08-19T06:48:04.327Z,1003.6
2022-08-19T06:49:04.333Z,1003.6
2022-08-19T06:50:05.374Z,1003.6
2022-08-19T06:51:04.343Z,1003.6
2022-08-19T06:52:04.333Z,1003.6
2022-08-19T06:53:04.626Z,1003.6
2022-08-19T06:54:04.402Z,1003.6
2022-08-19T06:55:06.244Z,1003.6
2022-08-19T06:56:04.577Z,1003.6
2022-08-19T06:57:04.338Z,1003.6
2022-08-19T06:58:04.332Z,1003.6
2022-08-19T06:59:04.343Z,1003.7
2022-08-19T07:00:04.338Z,1003.7
2022-08-19T07:01:07.093Z,1003.6
2022-08-19T07:02:04.342Z,1003.7
2022-08-19T07:03:07.809Z,1003.7
2022-08-19T07:04:04.374Z,1003.7
2022-08-19T07:05:04.331Z,1003.7
2022-08-19T07:06:07.161Z,1003.7
2022-08-19T07:07:09.484Z,1003.7
2022-08-19T07:08:05.148Z,1003.7
2022-08-19T07:09:04.435Z,1003.8
2022-08-19T07:10:06.214Z,1003.7
2022-08-19T07:11:04.357Z,1003.7
2022-08-19T07:12:04.380Z,1003.7
2022-08-19T07:13:04.331Z,1003.7
2022-08-19T07:14:04.328Z,1003.7
2022-08-19T07:15:04.357Z,1003.7
2022-08-19T07:16:05.663Z,1003.7
2022-08-19T07:17:04.343Z,1003.7
2022-08-19T07:18:04.733Z,1003.7
2022-08-19T07:19:04.843Z,1003.6
2022-08-19T07:20:06.968Z,1003.7
2022-08-19T07:21:04.536Z,1003.6
2022-08-19T07:22:04.446Z,1003.6
2022-08-19T07:23:07.187Z,1003.6
2022-08-19T07:24:06.806Z,1003.6
2022-08-19T07:25:04.352Z,1003.6
2022-08-19T07:27:04.390Z,1003.6
2022-08-19T07:28:04.355Z,1003.6
2022-08-19T07:30:37.787Z,1003.7
2022-08-19T07:31:04.535Z,1003.7
2022-08-19T07:32:04.466Z,1003.7
2022-08-19T07:33:04.505Z,1003.7
2022-08-19T07:34:04.465Z,1003.7
2022-08-19T07:35:04.492Z,1003.7
2022-08-19T07:36:04.481Z,1003.7
2022-08-19T07:37:04.502Z,1003.7
2022-08-19T07:38:04.674Z,1003.7
2022-08-19T07:39:04.528Z,1003.6
2022-08-19T07:40:04.552Z,1003.7
2022-08-19T07:41:04.473Z,1003.7
2022-08-19T07:42:04.482Z,1003.7
2022-08-19T07:43:04.490Z,1003.8
2022-08-19T07:44:04.469Z,1003.8
2022-08-19T07:45:04.473Z,1003.8
2022-08-19T07:46:04.536Z,1003.8
2022-08-19T07:47:04.460Z,1003.8
2022-08-19T07:48:04.910Z,1003.7
2022-08-19T07:49:04.500Z,1003.8
2022-08-19T07:50:04.518Z,1003.7
2022-08-19T07:51:04.494Z,1003.7
2022-08-19T07:52:04.549Z,1003.8
2022-08-19T07:53:04.466Z,1003.8
2022-08-19T07:54:04.470Z,1003.8
2022-08-19T07:55:04.515Z,1003.8
2022-08-19T07:56:04.468Z,1003.8
2022-08-19T07:57:04.468Z,1003.8
2022-08-19T07:58:04.475Z,1003.8
2022-08-19T07:59:04.479Z,1003.8
2022-08-19T08:00:04.500Z,1003.8
2022-08-19T08:01:04.526Z,1003.7
2022-08-19T08:02:04.566Z,1003.8
2022-08-19T08:03:04.472Z,1003.7
2022-08-19T08:04:04.482Z,1003.7
2022-08-19T08:05:04.708Z,1003.7
2022-08-19T08:06:04.470Z,1003.7
2022-08-19T08:07:04.605Z,1003.8
2022-08-19T08:08:04.869Z,1003.7
2022-08-19T08:09:04.513Z,1003.7
2022-08-19T08:10:04.481Z,1003.7
2022-08-19T08:11:07.577Z,1003.7
2022-08-19T08:12:17.986Z,1003.7
2022-08-19T08:13:10.187Z,1003.7
2022-08-19T08:14:04.731Z,1003.7
2022-08-19T08:15:04.474Z,1003.7
2022-08-19T08:16:04.515Z,1003.7
2022-08-19T08:18:37.012Z,1003.7
2022-08-19T08:19:03.694Z,1003.7
2022-08-19T08:20:04.425Z,1003.7
2022-08-19T08:21:03.682Z,1003.7
2022-08-19T08:22:03.724Z,1003.7
2022-08-19T08:23:03.695Z,1003.7
2022-08-19T08:24:03.682Z,1003.7
2022-08-19T08:25:03.699Z,1003.7
2022-08-19T08:26:03.689Z,1003.6
2022-08-19T08:27:03.735Z,1003.6
2022-08-19T08:28:03.710Z,1003.6
2022-08-19T08:29:12.236Z,1003.6
2022-08-19T08:30:03.693Z,1003.7
2022-08-19T08:31:03.686Z,1003.6
2022-08-19T08:32:03.683Z,1003.6
2022-08-19T08:33:03.706Z,1003.7
2022-08-19T08:34:03.687Z,1003.6
2022-08-19T08:35:03.711Z,1003.7
2022-08-19T08:36:03.800Z,1003.7
2022-08-19T08:37:03.704Z,1003.7
2022-08-19T08:38:03.697Z,1003.7
2022-08-19T08:39:03.694Z,1003.7
2022-08-19T08:40:03.813Z,1003.7
2022-08-19T08:41:03.695Z,1003.7
2022-08-19T08:42:10.336Z,1003.8
2022-08-19T08:44:03.707Z,1003.7
2022-08-19T08:45:03.713Z,1003.7
2022-08-19T08:46:03.711Z,1003.7
2022-08-19T08:47:03.693Z,1003.7
2022-08-19T08:48:03.688Z,1003.7
2022-08-19T08:49:03.695Z,1003.7
2022-08-19T08:50:03.794Z,1003.7
2022-08-19T08:51:03.714Z,1003.7
2022-08-19T08:52:03.688Z,1003.8
2022-08-19T08:53:03.698Z,1003.7
2022-08-19T08:54:03.727Z,1003.7
2022-08-19T08:55:03.703Z,1003.8
2022-08-19T08:56:03.714Z,1003.7
2022-08-19T08:57:03.708Z,1003.7
2022-08-19T08:58:03.696Z,1003.6
2022-08-19T08:59:03.715Z,1003.7
2022-08-19T09:00:03.744Z,1003.7
2022-08-19T09:01:03.723Z,1003.7
2022-08-19T09:02:03.761Z,1003.7
2022-08-19T09:03:03.717Z,1003.6
2022-08-19T09:04:03.897Z,1003.7
2022-08-19T09:05:41.455Z,1003.7
2022-08-19T09:06:03.861Z,1003.6
2022-08-19T09:07:03.869Z,1003.7
2022-08-19T09:08:03.860Z,1003.7
2022-08-19T09:09:03.895Z,1003.7
2022-08-19T09:10:04.023Z,1003.6
2022-08-19T09:11:03.864Z,1003.7
2022-08-19T09:12:03.884Z,1003.7
2022-08-19T09:13:03.872Z,1003.7
2022-08-19T09:14:03.851Z,1003.8
2022-08-19T09:15:03.897Z,1003.8
2022-08-19T09:16:03.864Z,1003.8
2022-08-19T09:17:03.967Z,1003.7
2022-08-19T09:18:03.981Z,1003.7
2022-08-19T09:19:04.024Z,1003.8
2022-08-19T09:20:03.967Z,1003.7
2022-08-19T09:21:04.020Z,1003.7
2022-08-19T09:22:04.039Z,1003.7
2022-08-19T09:23:04.001Z,1003.7
2022-08-19T09:24:03.961Z,1003.7
2022-08-19T09:25:03.865Z,1003.6
2022-08-19T09:26:03.855Z,1003.7
2022-08-19T09:27:08.307Z,1003.7
2022-08-19T09:28:05.622Z,1003.7
2022-08-19T09:29:03.871Z,1003.6
2022-08-19T09:30:03.919Z,1003.6
2022-08-19T09:31:03.989Z,1003.7
2022-08-19T09:32:03.853Z,1003.7
2022-08-19T09:33:03.903Z,1003.7
2022-08-19T09:34:03.871Z,1003.6
2022-08-19T09:35:03.994Z,1003.6
2022-08-19T09:36:03.865Z,1003.7
2022-08-19T09:37:03.866Z,1003.7
2022-08-19T09:38:03.872Z,1003.7
2022-08-19T09:39:03.880Z,1003.7
2022-08-19T09:40:03.940Z,1003.7
2022-08-19T09:41:04.998Z,1003.7
2022-08-19T09:42:03.863Z,1003.7
2022-08-19T09:43:10.251Z,1003.6
2022-08-19T09:44:03.873Z,1003.6
2022-08-19T09:45:05.334Z,1003.6
2022-08-19T09:46:04.044Z,1003.6
2022-08-19T09:47:03.870Z,1003.5
2022-08-19T09:48:03.877Z,1003.5
2022-08-19T09:49:06.742Z,1003.5
2022-08-19T09:51:36.283Z,1003.6
2022-08-19T09:52:03.967Z,1003.6
2022-08-19T09:53:03.975Z,1003.5
2022-08-19T09:54:04.891Z,1003.5
2022-08-19T09:55:07.239Z,1003.5
2022-08-19T09:56:04.263Z,1003.6
2022-08-19T09:57:06.777Z,1003.5
2022-08-19T09:58:04.050Z,1003.6
2022-08-19T09:59:04.100Z,1003.5
2022-08-19T10:00:03.957Z,1003.5
2022-08-19T10:01:04.086Z,1003.5
2022-08-19T10:02:10.696Z,1003.5
2022-08-19T10:03:03.973Z,1003.6
2022-08-19T10:04:08.983Z,1003.5
2022-08-19T10:05:03.988Z,1003.5
2022-08-19T10:06:03.990Z,1003.5
2022-08-19T10:07:04.005Z,1003.6
2022-08-19T10:08:04.550Z,1003.6
2022-08-19T10:09:04.034Z,1003.6
2022-08-19T10:10:04.023Z,1003.6
2022-08-19T10:11:28.397Z,1003.6
2022-08-19T10:12:03.964Z,1003.6
2022-08-19T10:13:04.009Z,1003.6
2022-08-19T10:14:04.005Z,1003.6
2022-08-19T10:15:04.014Z,1003.6
2022-08-19T10:16:03.998Z,1003.6
2022-08-19T10:17:17.467Z,1003.6
2022-08-19T10:18:04.006Z,1003.6
2022-08-19T10:19:05.933Z,1003.6
2022-08-19T10:20:03.988Z,1003.7
2022-08-19T10:21:03.992Z,1003.6
2022-08-19T10:22:03.975Z,1003.6
2022-08-19T10:23:03.977Z,1003.6
2022-08-19T10:24:04.012Z,1003.7
2022-08-19T10:25:03.989Z,1003.6
2022-08-19T10:26:03.996Z,1003.6
2022-08-19T10:27:04.009Z,1003.6
2022-08-19T10:28:03.976Z,1003.6
2022-08-19T10:29:03.979Z,1003.6
2022-08-19T10:30:03.985Z,1003.6
2022-08-19T10:31:04.024Z,1003.6
2022-08-19T10:32:03.990Z,1003.6
2022-08-19T10:33:08.301Z,1003.6
2022-08-19T10:34:03.989Z,1003.5
2022-08-19T10:35:06.045Z,1003.6
2022-08-19T10:36:04.184Z,1003.6
2022-08-19T10:37:03.993Z,1003.6
2022-08-19T10:38:04.106Z,1003.6
2022-08-19T10:39:04.034Z,1003.6
2022-08-19T10:40:04.030Z,1003.6
2022-08-19T10:41:04.003Z,1003.6
2022-08-19T10:42:03.990Z,1003.6
2022-08-19T10:43:04.014Z,1003.6
2022-08-19T10:44:04.575Z,1003.6
2022-08-19T10:45:04.936Z,1003.5
2022-08-19T10:46:04.023Z,1003.5
2022-08-19T10:47:04.000Z,1003.5
2022-08-19T10:48:03.995Z,1003.4
2022-08-19T10:49:04.016Z,1003.4
2022-08-19T10:50:03.986Z,1003.5
2022-08-19T10:51:04.017Z,1003.4
2022-08-19T10:52:04.007Z,1003.5
2022-08-19T10:53:04.012Z,1003.5
2022-08-19T10:55:12.771Z,1003.5
2022-08-19T10:55:16.824Z,1003.4
2022-08-19T10:56:03.988Z,1003.4
2022-08-19T10:57:04.006Z,1003.4
2022-08-19T10:58:04.051Z,1003.4
2022-08-19T10:59:04.023Z,1003.4
2022-08-19T11:00:03.987Z,1003.3
2022-08-19T11:01:04.110Z,1003.3
2022-08-19T11:02:03.998Z,1003.3
2022-08-19T11:03:04.012Z,1003.4
2022-08-19T11:04:03.995Z,1003.3
2022-08-19T11:05:05.135Z,1003.3
2022-08-19T11:06:03.995Z,1003.4
2022-08-19T11:07:04.016Z,1003.3
2022-08-19T11:08:03.998Z,1003.3
2022-08-19T11:09:03.996Z,1003.3
2022-08-19T11:10:04.002Z,1003.4
2022-08-19T11:11:03.996Z,1003.3
2022-08-19T11:12:04.787Z,1003.4
2022-08-19T11:13:04.066Z,1003.3
2022-08-19T11:14:03.980Z,1003.3
2022-08-19T11:15:03.987Z,1003.3
2022-08-19T11:16:06.751Z,1003.3
2022-08-19T11:17:04.016Z,1003.3
2022-08-19T11:18:13.198Z,1003.2
2022-08-19T11:19:05.234Z,1003.3
2022-08-19T11:20:04.432Z,1003.2
2022-08-19T11:21:04.439Z,1003.2
2022-08-19T11:22:04.412Z,1003.2
2022-08-19T11:23:04.498Z,1003.2
2022-08-19T11:24:04.465Z,1003.2
2022-08-19T11:25:04.471Z,1003.2
2022-08-19T11:26:04.486Z,1003.1
2022-08-19T11:27:04.430Z,1003.2
2022-08-19T11:28:04.412Z,1003.1
2022-08-19T11:29:04.423Z,1003.1
2022-08-19T11:30:04.427Z,1003.1
2022-08-19T11:31:04.618Z,1003.0
2022-08-19T11:32:04.404Z,1002.8
2022-08-19T11:33:04.415Z,1003.0
2022-08-19T11:34:04.445Z,1002.8
2022-08-19T11:35:04.415Z,1003.0
2022-08-19T11:36:06.008Z,1002.9
2022-08-19T11:37:04.409Z,1003.0
2022-08-19T11:38:08.250Z,1003.0
2022-08-19T11:39:04.418Z,1002.8
2022-08-19T11:40:04.473Z,1002.8
2022-08-19T11:41:04.436Z,1002.8
2022-08-19T11:42:04.440Z,1002.9
2022-08-19T11:43:04.409Z,1002.9
2022-08-19T11:44:04.418Z,1002.8
2022-08-19T11:45:04.429Z,1003.0
2022-08-19T11:46:04.424Z,1002.8
2022-08-19T11:47:08.729Z,1003.0
2022-08-19T11:48:04.420Z,1003.0
2022-08-19T11:49:04.418Z,1003.0
2022-08-19T11:50:04.424Z,1002.8
2022-08-19T11:51:04.418Z,1002.8
2022-08-19T11:52:04.411Z,1002.8
2022-08-19T11:53:04.421Z,1002.8
2022-08-19T11:54:04.416Z,1003.0
2022-08-19T11:55:04.402Z,1002.8
2022-08-19T11:56:04.440Z,1002.8
2022-08-19T11:57:04.411Z,1002.8
2022-08-19T11:58:04.429Z,1002.7
2022-08-19T11:59:04.488Z,1002.8
2022-08-19T12:00:04.444Z,1002.7
2022-08-19T12:01:04.437Z,1002.7
2022-08-19T12:02:04.418Z,1002.7
2022-08-19T12:03:04.447Z,1002.7
2022-08-19T12:04:04.455Z,1002.7
2022-08-19T12:05:06.160Z,1002.8
2022-08-19T12:06:04.457Z,1002.8
2022-08-19T12:07:04.424Z,1002.8
2022-08-19T12:08:04.436Z,1002.8
2022-08-19T12:09:04.482Z,1002.8
2022-08-19T12:10:04.431Z,1002.8
2022-08-19T12:12:58.730Z,1002.8
2022-08-19T12:13:03.811Z,1002.8
2022-08-19T12:14:03.814Z,1002.8
2022-08-19T12:15:03.983Z,1002.8
2022-08-19T12:16:10.548Z,1002.8
2022-08-19T12:17:04.334Z,1002.7
2022-08-19T12:18:10.969Z,1002.8
2022-08-19T12:19:04.651Z,1002.8
2022-08-19T12:20:12.112Z,1002.8
2022-08-19T12:21:04.075Z,1002.8
2022-08-19T12:22:04.088Z,1002.8
2022-08-19T12:23:04.078Z,1002.8
2022-08-19T12:24:04.095Z,1002.7
2022-08-19T12:25:04.073Z,1002.7
2022-08-19T12:26:04.200Z,1002.7
2022-08-19T12:27:04.087Z,1002.7
2022-08-19T12:28:04.445Z,1002.7
2022-08-19T12:29:05.646Z,1002.8
2022-08-19T12:30:04.085Z,1002.8
2022-08-19T12:31:04.106Z,1002.8
2022-08-19T12:32:04.277Z,1002.7
2022-08-19T18:50:43.364Z,1003.1
2022-08-19T18:51:04.381Z,1003.1
2022-08-19T18:52:04.399Z,1003.1
2022-08-19T18:53:04.408Z,1003.2